createdAt,value
2022-10-17T10:51:29.850Z,44.07
2022-10-17T10:54:04.644Z,44.85
2022-10-17T10:56:38.837Z,42.79
2022-10-17T10:59:42.768Z,42.25
2022-10-17T11:02:24.572Z,41.57
2022-10-17T11:05:06.745Z,42.78
2022-10-17T11:07:40.698Z,44.69
2022-10-17T11:10:28.278Z,44.90
2022-10-17T11:13:11.734Z,45.15
2022-10-17T11:15:47.547Z,45.91
2022-10-17T11:18:26.862Z,46.28
2022-10-17T11:20:59.766Z,46.27
2022-10-17T11:23:43.112Z,46.82
2022-10-17T11:26:17.621Z,46.00
2022-10-17T11:28:44.388Z,46.64
2022-10-17T11:31:14.883Z,46.14
2022-10-17T11:33:46.856Z,45.75
2022-10-17T11:36:16.822Z,44.74
2022-10-17T11:38:52.793Z,44.53
2022-10-17T11:41:29.909Z,44.94
2022-10-17T11:44:24.324Z,44.20
2022-10-17T11:46:57.398Z,43.73
2022-10-17T11:49:42.290Z,44.09
2022-10-17T11:52:44.427Z,43.02
2022-10-17T11:55:19.785Z,43.30
2022-10-17T11:57:52.341Z,43.88
2022-10-17T12:00:28.119Z,42.58
2022-10-17T12:03:16.179Z,42.66
2022-10-17T12:05:50.798Z,41.16
2022-10-17T12:08:26.922Z,41.93
2022-10-17T12:11:20.133Z,43.45
2022-10-17T12:13:49.106Z,43.56
2022-10-17T12:16:18.690Z,44.48
2022-10-17T12:18:51.728Z,44.63
2022-10-17T12:21:18.631Z,44.13
2022-10-17T12:23:53.760Z,44.08
2022-10-17T12:26:28.818Z,43.72
2022-10-17T12:28:56.694Z,43.27
2022-10-17T12:31:28.534Z,42.69
2022-10-17T12:34:04.827Z,43.24
2022-10-17T12:36:31.418Z,42.21
2022-10-17T12:39:04.096Z,42.65
2022-10-17T12:41:39.671Z,43.33
2022-10-17T12:44:28.741Z,43.43
2022-10-17T12:47:05.231Z,43.61
2022-10-17T12:49:45.673Z,42.23
2022-10-17T12:52:17.995Z,43.98
2022-10-17T12:55:00.151Z,43.64
2022-10-17T12:57:49.096Z,42.82
2022-10-17T13:00:49.796Z,43.43
2022-10-17T13:03:30.703Z,43.96
2022-10-17T13:06:06.918Z,43.29
2022-10-17T13:08:39.052Z,43.46
2022-10-17T13:11:08.037Z,43.76
2022-10-17T13:13:50.427Z,43.52
2022-10-17T13:16:36.097Z,43.39
2022-10-17T13:19:13.131Z,44.09
2022-10-17T13:21:40.056Z,43.30
2022-10-17T13:24:30.340Z,43.66
2022-10-17T13:26:57.097Z,42.97
2022-10-17T13:29:25.815Z,42.47
2022-10-17T13:31:55.783Z,42.63
2022-10-17T13:34:26.184Z,42.28
2022-10-17T13:36:55.590Z,42.80
2022-10-17T13:39:38.324Z,43.36
2022-10-17T13:42:21.453Z,43.03
2022-10-17T13:44:48.560Z,42.89
2022-10-17T13:47:33.971Z,43.13
2022-10-17T13:50:01.134Z,44.00
2022-10-17T13:52:30.363Z,43.62
2022-10-17T13:55:17.431Z,43.72
2022-10-17T13:57:44.432Z,44.23
2022-10-17T14:00:19.714Z,44.46
2022-10-17T14:02:46.501Z,44.87
2022-10-17T14:05:18.552Z,44.36
2022-10-17T14:08:13.378Z,44.87
2022-10-17T14:10:43.348Z,45.09
2022-10-17T14:13:23.066Z,44.14
2022-10-17T14:15:50.770Z,44.83
2022-10-17T14:18:33.299Z,44.42
2022-10-17T14:23:50.728Z,44.04
2022-10-17T14:26:17.241Z,44.00
2022-10-17T14:28:47.942Z,43.75
2022-10-17T14:31:29.951Z,44.04
2022-10-17T14:33:57.407Z,44.75
2022-10-17T14:36:37.432Z,45.28
2022-10-17T14:39:11.898Z,44.88
2022-10-17T14:41:44.801Z,45.14
2022-10-17T14:44:32.748Z,45.12
2022-10-17T14:47:30.140Z,45.07
2022-10-17T14:50:03.545Z,46.04
2022-10-17T14:52:32.835Z,46.27
2022-10-17T14:55:12.612Z,46.64
2022-10-17T14:57:45.579Z,46.78
2022-10-17T15:00:17.383Z,47.34
2022-10-17T15:02:45.354Z,47.27
2022-10-17T15:05:13.600Z,47.55
2022-10-17T15:07:41.090Z,48.20
2022-10-17T15:10:32.114Z,48.41
2022-10-17T15:13:26.218Z,48.87
2022-10-17T15:15:51.421Z,49.63
2022-10-17T15:18:18.124Z,49.92
2022-10-17T15:20:44.848Z,50.39
2022-10-17T15:23:11.492Z,50.82
2022-10-17T15:25:39.119Z,51.01
2022-10-17T15:28:05.825Z,52.12
2022-10-17T15:30:36.531Z,52.66
2022-10-17T15:33:03.496Z,51.71
2022-10-17T15:35:30.632Z,52.62
2022-10-17T15:37:57.308Z,52.87
2022-10-17T15:40:30.557Z,54.02
2022-10-17T15:42:57.749Z,53.72
2022-10-17T15:45:24.824Z,53.75
2022-10-17T15:48:04.215Z,53.53
2022-10-17T15:50:30.836Z,53.25
2022-10-17T15:52:57.492Z,53.04
2022-10-17T15:55:24.168Z,53.56
2022-10-17T15:57:51.042Z,53.18
2022-10-17T16:00:23.468Z,53.43
2022-10-17T16:02:50.784Z,53.69
2022-10-17T16:05:23.482Z,53.56
2022-10-17T16:07:50.567Z,53.70
2022-10-17T16:10:17.799Z,54.54
2022-10-17T16:12:45.018Z,54.67
2022-10-17T16:15:18.170Z,54.74
2022-10-17T16:17:44.972Z,56.07
2022-10-17T16:20:13.037Z,57.36
2022-10-17T16:22:42.162Z,56.54
2022-10-17T16:25:21.545Z,56.65
2022-10-17T16:27:51.509Z,56.26
2022-10-17T16:30:18.745Z,57.83
2022-10-17T16:32:46.280Z,57.57
2022-10-17T16:35:22.521Z,58.68
2022-10-17T16:37:49.328Z,58.87
2022-10-17T16:40:16.770Z,59.51
2022-10-17T16:42:44.019Z,58.86
2022-10-17T16:45:17.501Z,59.09
2022-10-17T16:47:44.336Z,59.14
2022-10-17T16:50:11.089Z,59.45
2022-10-17T16:52:37.699Z,59.49
2022-10-17T16:55:04.950Z,59.64
2022-10-17T16:57:31.644Z,59.03
2022-10-17T16:59:58.476Z,59.83
2022-10-17T17:02:25.193Z,59.41
2022-10-17T17:04:51.833Z,60.68
2022-10-17T17:07:19.835Z,60.58
2022-10-17T17:09:46.563Z,60.39
2022-10-17T17:12:13.254Z,61.02
2022-10-17T17:14:39.900Z,61.65
2022-10-17T17:17:09.583Z,61.85
2022-10-17T17:19:42.083Z,62.48
2022-10-17T17:22:08.732Z,62.52
2022-10-17T17:24:35.402Z,63.20
2022-10-17T17:27:02.026Z,63.69
2022-10-17T17:29:28.894Z,63.07
2022-10-17T17:31:55.510Z,64.04
2022-10-17T17:34:22.226Z,64.62
2022-10-17T17:36:49.040Z,64.40
2022-10-17T17:39:16.116Z,65.06
2022-10-17T17:41:44.472Z,65.04
2022-10-17T17:44:16.410Z,64.55
2022-10-17T17:46:44.194Z,64.54
2022-10-17T17:49:11.686Z,65.18
2022-10-17T17:51:39.030Z,65.45
2022-10-17T17:54:05.754Z,65.48
2022-10-17T17:56:32.979Z,65.59
2022-10-17T17:59:02.250Z,66.41
2022-10-17T18:01:35.114Z,66.52
2022-10-17T18:04:01.739Z,66.50
2022-10-17T18:06:29.025Z,67.65
2022-10-17T18:08:58.110Z,67.82
2022-10-17T18:11:27.252Z,67.08
2022-10-17T18:14:06.349Z,67.86
2022-10-17T18:16:35.105Z,67.69
2022-10-17T18:19:07.185Z,68.42
2022-10-17T18:21:34.815Z,69.50
2022-10-17T18:24:02.179Z,69.91
2022-10-17T18:26:28.892Z,70.34
2022-10-17T18:28:55.649Z,69.73
2022-10-17T18:31:35.801Z,70.40
2022-10-17T18:34:03.482Z,70.88
2022-10-17T18:36:30.995Z,71.12
2022-10-17T18:38:59.781Z,70.54
2022-10-17T18:41:27.288Z,70.33
2022-10-17T18:43:55.141Z,70.71
2022-10-17T18:46:24.659Z,70.56
2022-10-17T18:48:51.600Z,69.63
2022-10-17T18:51:21.211Z,69.96
2022-10-17T18:53:50.169Z,70.25
2022-10-17T18:56:17.845Z,70.93
2022-10-17T18:58:44.744Z,70.89
2022-10-17T19:01:17.773Z,70.79
2022-10-17T19:03:47.112Z,71.78
2022-10-17T19:06:16.168Z,71.67
2022-10-17T19:08:43.915Z,72.07
2022-10-17T19:11:30.272Z,71.85
2022-10-17T19:13:58.164Z,72.86
2022-10-17T19:16:31.050Z,73.49
2022-10-17T19:19:03.253Z,73.34
2022-10-17T19:21:30.234Z,73.66
2022-10-17T19:24:04.034Z,74.02
2022-10-17T19:26:32.665Z,74.30
2022-10-17T19:29:00.650Z,75.15
2022-10-17T19:31:29.894Z,75.41
2022-10-17T19:33:56.673Z,75.19
2022-10-17T19:36:28.937Z,75.29
2022-10-17T19:38:59.107Z,74.64
2022-10-17T19:41:26.175Z,76.87
2022-10-17T19:43:52.815Z,77.04
2022-10-17T19:46:22.327Z,77.21
2022-10-17T19:48:49.935Z,76.81
2022-10-17T19:51:18.521Z,77.82
2022-10-17T19:53:46.525Z,77.89
2022-10-17T19:56:13.596Z,77.72
2022-10-17T19:58:46.657Z,77.26
2022-10-17T20:01:19.097Z,77.29
2022-10-17T20:03:46.722Z,77.32
2022-10-17T20:06:13.912Z,77.30
2022-10-17T20:08:41.191Z,76.35
2022-10-17T20:11:13.946Z,76.00
2022-10-17T20:13:41.153Z,76.29
2022-10-17T20:16:11.229Z,79.04
2022-10-17T20:18:38.420Z,80.43
2022-10-17T20:21:12.292Z,80.66
2022-10-17T20:23:40.227Z,80.47
2022-10-17T20:26:25.774Z,80.72
2022-10-17T20:28:53.417Z,80.09
2022-10-17T20:31:20.643Z,79.75
2022-10-17T20:33:47.341Z,79.78
2022-10-17T20:36:16.620Z,80.29
2022-10-17T20:38:43.260Z,79.90
2022-10-17T20:41:10.536Z,79.01
2022-10-17T20:43:38.339Z,79.06
2022-10-17T20:46:22.883Z,80.03
2022-10-17T20:48:54.565Z,81.43
2022-10-17T20:51:21.805Z,80.67
2022-10-17T20:53:49.031Z,80.03
2022-10-17T20:56:24.468Z,79.83
2022-10-17T20:58:56.641Z,81.18
2022-10-17T21:01:24.349Z,82.79
2022-10-17T21:03:51.447Z,83.27
2022-10-17T21:06:19.542Z,83.63
2022-10-17T21:08:47.564Z,84.02
2022-10-17T21:11:17.629Z,82.26
2022-10-17T21:13:45.740Z,81.70
2022-10-17T21:16:18.244Z,80.72
2022-10-17T21:18:45.915Z,79.49
2022-10-17T21:21:18.074Z,79.68
2022-10-17T21:23:47.431Z,79.79
2022-10-17T21:26:15.039Z,79.92
2022-10-17T21:28:43.242Z,81.04
2022-10-17T21:31:17.799Z,80.77
2022-10-17T21:33:47.655Z,82.08
2022-10-17T21:36:16.777Z,82.35
2022-10-17T21:38:45.155Z,82.95
2022-10-17T21:41:14.200Z,82.97
2022-10-17T21:43:42.507Z,82.97
2022-10-17T21:46:13.827Z,82.88
2022-10-17T21:48:40.605Z,82.78
2022-10-17T21:51:10.041Z,83.06
2022-10-17T21:53:37.401Z,83.16
2022-10-17T21:56:08.210Z,82.21
2022-10-17T21:58:34.947Z,82.45
2022-10-17T22:01:35.484Z,82.05
2022-10-17T22:04:04.180Z,81.97
2022-10-17T22:06:39.805Z,82.38
2022-10-17T22:09:12.217Z,82.06
2022-10-17T22:11:38.984Z,82.24
2022-10-17T22:14:14.943Z,81.63
2022-10-17T22:16:42.365Z,82.34
2022-10-17T22:19:11.504Z,83.80
2022-10-17T22:21:38.227Z,84.50
2022-10-17T22:24:08.136Z,85.24
2022-10-17T22:26:36.977Z,85.69
2022-10-17T22:29:05.407Z,84.88
2022-10-17T22:31:32.322Z,85.43
2022-10-17T22:33:59.346Z,85.88
2022-10-17T22:36:26.244Z,86.75
2022-10-17T22:38:53.132Z,88.24
2022-10-17T22:41:20.581Z,88.30
2022-10-17T22:43:47.286Z,87.51
2022-10-17T22:46:16.233Z,87.06
2022-10-17T22:48:43.628Z,86.46
2022-10-17T22:51:10.901Z,85.99
2022-10-17T22:53:37.894Z,85.76
2022-10-17T22:56:09.323Z,86.07
2022-10-17T22:58:36.310Z,86.35
2022-10-17T23:01:04.551Z,85.82
2022-10-17T23:03:31.840Z,86.39
2022-10-17T23:05:59.209Z,86.48
2022-10-17T23:08:26.586Z,86.05
2022-10-17T23:10:53.614Z,86.99
2022-10-17T23:13:21.949Z,87.07
2022-10-17T23:15:56.525Z,87.76
2022-10-17T23:18:24.786Z,87.85
2022-10-17T23:20:52.089Z,87.92
2022-10-17T23:23:19.501Z,88.19
2022-10-17T23:25:46.877Z,87.10
2022-10-17T23:28:14.111Z,86.68
2022-10-17T23:30:41.112Z,86.98
2022-10-17T23:33:10.426Z,87.28
2022-10-17T23:35:37.083Z,87.11
2022-10-17T23:38:03.860Z,87.82
2022-10-17T23:40:30.542Z,87.40
2022-10-17T23:42:57.189Z,88.25
2022-10-17T23:45:23.930Z,88.01
2022-10-17T23:47:50.583Z,88.37
2022-10-17T23:50:17.291Z,87.89
2022-10-17T23:52:43.895Z,88.46
2022-10-17T23:55:10.763Z,88.02
2022-10-17T23:57:37.385Z,87.88
